Flight Track Log - Related Links

Times and Time Zones

All times are in EDT time to prevent confusion due to time zone crossing. See the N1125A flight status page for this flight to view local times or setup timezone preferences in your user account.

Time Position Orientation Groundspeed Altitude Reporting Facility
EDT Latitude Longitude Course Direction KTS MPH feet Rate Location/Type
Fri 05:57:48 PM 41.0333 -73.7667 252° West 194 223 3,400  Level New York TRACON
Fri 05:58:48 PM 41.0167 -73.8500 255° West 225 259 6,700 2,950 Climbing New York TRACON
Fri 05:59:48 PM 40.9667 -73.9000 217° Southwest 262 302 9,300 2,300 Climbing New York TRACON
Fri 06:00:48 PM 40.9000 -73.9667 217° Southwest 282 325 11,300 1,800 Climbing New York TRACON
Fri 06:01:48 PM 40.8500 -74.0667 237° Southwest 292 336 12,900 1,405 Climbing New York TRACON
Fri 06:03:26 PM 40.7908 -74.2028 240° Southwest 304 350 15,000 873 Climbing New York Center
Fri 06:04:26 PM 40.7356 -74.3178 238° Southwest 331 381 15,200 600 Climbing New York Center
Fri 06:05:26 PM 40.6806 -74.4078 231° Southwest 349 402 16,200 1,250 Climbing New York Center
Fri 06:06:26 PM 40.6125 -74.5189 231° Southwest 354 407 17,700 1,350 Climbing New York Center
Fri 06:07:26 PM 40.5575 -74.6117 232° Southwest 361 415 18,900 1,450 Climbing New York Center
Fri 06:08:26 PM 40.4869 -74.7250 231° Southwest 366 421 20,600 1,650 Climbing New York Center
Fri 06:09:26 PM 40.4272 -74.8278 233° Southwest 366 421 22,200 1,550 Climbing New York Center
Fri 06:10:26 PM 40.3675 -74.9306 233° Southwest 366 421 23,700 1,600 Climbing New York Center
Fri 06:11:26 PM 40.3075 -75.0306 232° Southwest 366 421 25,400 1,600 Climbing New York Center
Fri 06:12:26 PM 40.2456 -75.1328 232° Southwest 366 421 26,900 1,400 Climbing New York Center
Fri 06:13:26 PM 40.1856 -75.2322 232° Southwest 360 414 28,200 1,350 Climbing New York Center
Fri 06:14:26 PM 40.1275 -75.3317 233° Southwest 360 414 29,600 1,450 Climbing New York Center
Fri 06:15:26 PM 40.0694 -75.4281 232° Southwest 360 414 31,100 1,450 Climbing New York Center
Fri 06:16:26 PM 40.0139 -75.5167 231° Southwest 348 400 32,500 1,200 Climbing New York Center
Fri 06:17:26 PM 39.9622 -75.6053 233° Southwest 327 376 33,500 900 Climbing New York Center
Fri 06:18:26 PM 39.9089 -75.6908 231° Southwest 320 368 34,300 742 Climbing New York Center
Fri 06:20:24 PM 39.8050 -75.8589 231° Southwest 316 364 35,700 573 Climbing Washington Center
Fri 06:21:24 PM 39.7486 -75.9450 230° Southwest 316 364 36,000 149 Climbing Washington Center
Fri 06:22:25 PM 39.6919 -76.0339 230° Southwest 316 364 36,000  Level Washington Center
Fri 06:23:26 PM 39.6333 -76.1250 230° Southwest 329 379 36,000  Level Washington Center
Fri 06:24:24 PM 39.5767 -76.2189 232° Southwest 334 384 36,000  Level Washington Center
Fri 06:25:25 PM 39.5178 -76.3125 231° Southwest 339 390 36,000  Level Washington Center
Fri 06:26:25 PM 39.4525 -76.4058 228° Southwest 339 390 36,000  Level Washington Center
Fri 06:27:25 PM 39.3914 -76.5044 231° Southwest 345 397 36,000  Level Washington Center
Fri 06:28:26 PM 39.3281 -76.5978 229° Southwest 350 403 36,000  Level Washington Center
Fri 06:29:26 PM 39.2669 -76.6961 231° Southwest 350 403 36,000  Level Washington Center
Fri 06:30:24 PM 39.2033 -76.7917 229° Southwest 350 403 36,000  Level Washington Center
Fri 06:31:24 PM 39.1442 -76.8869 231° Southwest 350 403 36,000  Level Washington Center
Fri 06:32:26 PM 39.0825 -76.9819 230° Southwest 350 403 36,000  Level Washington Center
Fri 06:33:26 PM 39.0128 -77.0742 226° Southwest 350 403 36,000  Level Washington Center
Fri 06:34:24 PM 38.9344 -77.1553 219° Southwest 360 414 36,000  Level Washington Center
Fri 06:35:26 PM 38.8669 -77.2286 220° Southwest 372 428 36,000  Level Washington Center
Fri 06:36:24 PM 38.7928 -77.3150 222° Southwest 372 428 36,000  Level Washington Center
Fri 06:37:25 PM 38.7164 -77.3983 220° Southwest 367 422 36,000  Level Washington Center
Fri 06:38:26 PM 38.6400 -77.4814 220° Southwest 367 422 36,000  Level Washington Center
Fri 06:39:26 PM 38.5636 -77.5644 220° Southwest 367 422 36,000  Level Washington Center
Fri 06:40:24 PM 38.4850 -77.6472 220° Southwest 367 422 36,000  Level Washington Center
Fri 06:41:26 PM 38.4064 -77.7325 220° Southwest 367 422 36,000  Level Washington Center
Fri 06:42:26 PM 38.3319 -77.8125 220° Southwest 367 422 36,000  Level Washington Center
Fri 06:43:23 PM 38.2556 -77.8947 220° Southwest 367 422 36,000  Level Washington Center
Fri 06:44:24 PM 38.1767 -77.9794 220° Southwest 367 422 36,000  Level Washington Center
Fri 06:45:25 PM 38.1000 -78.0614 220° Southwest 367 422 36,000  Level Washington Center
Fri 06:46:26 PM 38.0208 -78.1458 220° Southwest 367 422 36,000  Level Washington Center
Fri 06:47:24 PM 37.9564 -78.2411 229° Southwest 364 419 36,000  Level Washington Center
Fri 06:48:25 PM 37.8875 -78.3386 228° Southwest 369 425 36,000  Level Washington Center
Fri 06:49:26 PM 37.8203 -78.4389 230° Southwest 375 432 36,000  Level Washington Center
Fri 06:50:24 PM 37.7428 -78.5461 228° Southwest 375 432 36,000  Level Washington Center
Fri 06:51:24 PM 37.6756 -78.6433 229° Southwest 375 432 36,000  Level Washington Center
Fri 06:52:25 PM 37.6064 -78.7400 228° Southwest 375 432 36,000  Level Washington Center
Fri 06:53:26 PM 37.5369 -78.8394 229° Southwest 375 432 36,000  Level Washington Center
Fri 06:54:26 PM 37.4675 -78.9386 229° Southwest 375 432 36,000  Level Washington Center
Fri 06:55:24 PM 37.4025 -79.0244 226° Southwest 375 432 36,000  Level Washington Center
Fri 06:56:24 PM 37.3328 -79.1233 228° Southwest 375 432 36,000  Level Washington Center
Fri 06:58:26 PM 37.1872 -79.3200 227° Southwest 385 443 36,000  Level Washington Center
Fri 06:59:24 PM 37.1133 -79.4128 225° Southwest 385 443 36,000  Level Washington Center
Fri 07:00:25 PM 37.0394 -79.5053 225° Southwest 385 443 36,000  Level Washington Center
Fri 07:01:25 PM 36.9567 -79.6103 225° Southwest 390 449 36,000  Level Washington Center
Fri 07:02:26 PM 36.8825 -79.7025 225° Southwest 390 449 36,000  Level Washington Center
Fri 07:03:24 PM 36.8083 -79.7944 225° Southwest 390 449 36,000  Level Washington Center
Fri 07:05:08 PM 36.6783 -79.9517 224° Southwest 371 427 36,000  Level Atlanta Center
Fri 07:06:08 PM 36.6044 -80.0433 225° Southwest 371 427 36,000  Level Atlanta Center
Fri 07:07:08 PM 36.5322 -80.1347 225° Southwest 371 427 36,000  Level Atlanta Center
Fri 07:08:08 PM 36.4661 -80.2206 226° Southwest 376 433 36,000  Level Atlanta Center
Fri 07:09:08 PM 36.4044 -80.3192 232° Southwest 376 433 36,000  Level Atlanta Center
Fri 07:10:08 PM 36.3408 -80.4225 233° Southwest 376 433 36,000  Level Atlanta Center
Fri 07:11:08 PM 36.2747 -80.5208 230° Southwest 376 433 36,000  Level Atlanta Center
Fri 07:12:08 PM 36.2150 -80.6186 233° Southwest 376 433 36,000  Level Atlanta Center
Fri 07:13:08 PM 36.1531 -80.7164 232° Southwest 376 433 36,000  Level Atlanta Center
Fri 07:14:08 PM 36.0889 -80.8167 232° Southwest 376 433 36,000  Level Atlanta Center
Fri 07:15:08 PM 36.0247 -80.9167 232° Southwest 371 427 36,000  Level Atlanta Center
Fri 07:16:08 PM 35.9625 -81.0142 232° Southwest 371 427 36,000  Level Atlanta Center
Fri 07:17:08 PM 35.9003 -81.1111 232° Southwest 371 427 36,000  Level Atlanta Center
Fri 07:18:08 PM 35.8358 -81.2133 232° Southwest 376 433 36,000  Level Atlanta Center
Fri 07:19:08 PM 35.7736 -81.3128 232° Southwest 371 427 36,000  Level Atlanta Center
Fri 07:20:08 PM 35.7008 -81.4228 231° Southwest 376 433 36,000  Level Atlanta Center
Fri 07:21:08 PM 35.6361 -81.5192 230° Southwest 376 433 36,000  Level Atlanta Center
Fri 07:22:08 PM 35.5692 -81.6158 230° Southwest 376 433 36,000  Level Atlanta Center
Fri 07:23:08 PM 35.5044 -81.7147 231° Southwest 376 433 36,000  Level Atlanta Center
Fri 07:24:08 PM 35.4394 -81.8133 231° Southwest 376 433 36,000  Level Atlanta Center
Fri 07:25:08 PM 35.3764 -81.9094 231° Southwest 376 433 36,000  Level Atlanta Center
Fri 07:26:08 PM 35.3114 -82.0103 232° Southwest 376 433 36,000  Level Atlanta Center
Fri 07:27:08 PM 35.2461 -82.1033 229° Southwest 376 433 36,000  Level Atlanta Center
Fri 07:28:08 PM 35.1808 -82.1989 230° Southwest 376 433 36,000  Level Atlanta Center
Fri 07:29:08 PM 35.1175 -82.2944 231° Southwest 370 426 36,000  Level Atlanta Center
Fri 07:30:08 PM 35.0519 -82.3869 229° Southwest 370 426 36,000  Level Atlanta Center
Fri 07:31:08 PM 34.9928 -82.4769 231° Southwest 376 433 36,000  Level Atlanta Center
Fri 07:32:08 PM 34.9292 -82.5744 232° Southwest 376 433 36,000  Level Atlanta Center
Fri 07:33:08 PM 34.8636 -82.6717 231° Southwest 370 426 36,000  Level Atlanta Center
Fri 07:34:08 PM 34.7978 -82.7664 230° Southwest 370 426 36,000  Level Atlanta Center
Fri 07:35:08 PM 34.7319 -82.8583 229° Southwest 370 426 36,000  Level Atlanta Center
Fri 07:36:08 PM 34.6597 -82.9556 228° Southwest 375 432 36,000  Level Atlanta Center
Fri 07:37:08 PM 34.5917 -83.0497 229° Southwest 380 437 36,000  Level Atlanta Center
Fri 07:38:08 PM 34.5297 -83.1486 233° Southwest 380 437 36,000  Level Atlanta Center
Fri 07:39:08 PM 34.4617 -83.2428 229° Southwest 380 437 36,000  Level Atlanta Center
Fri 07:40:08 PM 34.3956 -83.3414 231° Southwest 385 443 36,000  Level Atlanta Center
Fri 07:41:08 PM 34.3292 -83.4400 231° Southwest 385 443 36,000  Level Atlanta Center
Fri 07:42:08 PM 34.2544 -83.5461 230° Southwest 385 443 36,000  Level Atlanta Center
Fri 07:43:08 PM 34.1861 -83.6444 230° Southwest 385 443 36,000  Level Atlanta Center
Fri 07:44:08 PM 34.1194 -83.7403 230° Southwest 385 443 36,000  Level Atlanta Center
Fri 07:45:08 PM 34.0508 -83.8383 230° Southwest 385 443 36,000  Level Atlanta Center
Fri 07:46:08 PM 33.9819 -83.9336 229° Southwest 385 443 36,000  Level Atlanta Center
Fri 07:47:08 PM 33.9153 -84.0314 231° Southwest 385 443 36,000 -50 Level Atlanta Center
Fri 07:48:08 PM 33.8444 -84.1289 229° Southwest 385 443 35,900 -400 Descending Atlanta Center
Fri 07:49:08 PM 33.7753 -84.2314 231° Southwest 393 452 35,200 -450 Descending Atlanta Center
Fri 07:50:08 PM 33.7064 -84.3258 229° Southwest 393 452 35,000 -550 Descending Atlanta Center
Fri 07:51:08 PM 33.6331 -84.4281 229° Southwest 398 458 34,100 -500 Descending Atlanta Center
Fri 07:52:08 PM 33.5700 -84.5175 230° Southwest 398 458 34,000 -50 Descending Atlanta Center
Fri 07:53:08 PM 33.4944 -84.6242 230° Southwest 398 458 34,000  Level Atlanta Center
Fri 07:54:08 PM 33.4250 -84.7183 229° Southwest 388 447 34,000  Level Atlanta Center
Fri 07:55:08 PM 33.3578 -84.8147 230° Southwest 383 441 34,000  Level Atlanta Center
Fri 07:56:08 PM 33.2881 -84.9111 229° Southwest 383 441 34,000  Level Atlanta Center
Fri 07:57:08 PM 33.2206 -85.0047 229° Southwest 383 441 34,000  Level Atlanta Center
Fri 07:58:08 PM 33.1531 -85.1008 230° Southwest 383 441 34,000  Level Atlanta Center
Fri 07:59:08 PM 33.0833 -85.1967 229° Southwest 383 441 34,000  Level Atlanta Center
Fri 08:00:08 PM 33.0178 -85.2750 225° Southwest 377 434 34,000  Level Atlanta Center
Fri 08:01:08 PM 32.9481 -85.3731 230° Southwest 377 434 34,000  Level Atlanta Center
Fri 08:02:08 PM 32.8758 -85.4683 228° Southwest 387 445 34,000 -400 Level Atlanta Center
Fri 08:03:08 PM 32.8058 -85.5686 230° Southwest 387 445 33,200 -950 Descending Atlanta Center
Fri 08:04:08 PM 32.7314 -85.6686 229° Southwest 392 451 32,100 -1,100 Descending Atlanta Center
Fri 08:05:08 PM 32.6572 -85.7633 227° Southwest 398 458 31,000 -1,150 Descending Atlanta Center
Fri 08:06:08 PM 32.5825 -85.8681 230° Southwest 403 464 29,800 -1,550 Descending Atlanta Center
Fri 08:07:08 PM 32.4931 -85.9819 227° Southwest 403 464 27,900 -1,800 Descending Atlanta Center
Fri 08:08:08 PM 32.4206 -86.0811 229° Southwest 414 476 26,200 -1,700 Descending Atlanta Center
Fri 08:09:08 PM 32.3417 -86.1850 228° Southwest 419 482 24,500 -1,100 Descending Atlanta Center
Fri 08:10:08 PM 32.2667 -86.2889 230° Southwest 426 490 24,000 -1,150 Descending Atlanta Center
Fri 08:11:08 PM 32.1897 -86.3950 229° Southwest 426 490 22,200 -1,800 Descending Atlanta Center
Fri 08:12:08 PM 32.1186 -86.4961 230° Southwest 420 483 20,400 -2,550 Descending Atlanta Center
Fri 08:13:08 PM 32.0503 -86.5775 225° Southwest 410 472 17,100 -3,150 Descending Atlanta Center
Fri 08:14:08 PM 31.9667 -86.6853 228° Southwest 405 466 14,100 -2,850 Descending Atlanta Center
Fri 08:15:08 PM 31.8936 -86.7808 228° Southwest 405 466 11,400 -2,450 Descending Atlanta Center
Fri 08:16:08 PM 31.8269 -86.8694 228° Southwest 398 458 9,200 -2,100 Descending Atlanta Center
Fri 08:17:08 PM 31.7622 -86.9553 228° Southwest 375 432 7,200 -2,000 Descending Atlanta Center
Fri 08:18:08 PM 31.7019 -87.0386 230° Southwest 355 409 5,200 -2,000 Descending Atlanta Center

Login

Don't have an account? Register now (free) for customized features, flight alerts, and more!